0116 UTC 27 November 2014 found at http://aviationweather.gov/adds/metars/
 
METAR text: KMNH 270055Z AUTO 20007KT 10SM CLR M02/M04 A3023 RMK AO2
Conditions at: KMNH (MONUMENT/ELBERT , CO, US) observed 0055 UTC 27 November 2014
Temperature: -2.0°C (28°F)
Dewpoint: -4.0°C (25°F) [RH = 86%]
Pressure (altimeter): 30.23 inches Hg (1023.8 mb)
Winds: from the SSW (200 degrees) at 8 MPH (7 knots; 3.6 m/s)
Visibility: 10 or more miles (16+ km)
Ceiling: at least 12,000 feet AGL
Clouds: sky clear below 12,000 feet AGL
Weather: automated observation with no human augmentation;
there may or may not be significant weather present at this time

METAR text: KMNH 270035Z AUTO 20006KT 10SM CLR M01/M03 A3022 RMK AO2
Conditions at: KMNH (MONUMENT/ELBERT , CO, US) observed 0035 UTC 27 November 2014
Temperature: -1.0°C (30°F)
Dewpoint: -3.0°C (27°F) [RH = 86%]
Pressure (altimeter): 30.22 inches Hg (1023.5 mb)
Winds: from the SSW (200 degrees) at 7 MPH (6 knots; 3.1 m/s)
Visibility: 10 or more miles (16+ km)
Ceiling: at least 12,000 feet AGL
Clouds: sky clear below 12,000 feet AGL
Weather: automated observation with no human augmentation;
there may or may not be significant weather present at this time

METAR text: KMNH 270015Z AUTO 21005KT 10SM CLR 00/M03 A3021 RMK AO2
Conditions at: KMNH (MONUMENT/ELBERT , CO, US) observed 0015 UTC 27 November 2014
Temperature: 0.0°C (32°F)
Dewpoint: -3.0°C (27°F) [RH = 80%]
Pressure (altimeter): 30.21 inches Hg (1023.1 mb)
Winds: from the SSW (210 degrees) at 6 MPH (5 knots; 2.6 m/s)
Visibility: 10 or more miles (16+ km)
Ceiling: at least 12,000 feet AGL
Clouds: sky clear below 12,000 feet AGL
Weather: automated observation with no human augmentation;
there may or may not be significant weather present at this time

METAR text: KMNH 262355Z AUTO 21006KT 10SM CLR 00/M03 A3021 RMK AO2
Conditions at: KMNH (MONUMENT/ELBERT , CO, US) observed 2355 UTC 26 November 2014
Temperature: 0.0°C (32°F)
Dewpoint: -3.0°C (27°F) [RH = 80%]
Pressure (altimeter): 30.21 inches Hg (1023.1 mb)
Winds: from the SSW (210 degrees) at 7 MPH (6 knots; 3.1 m/s)
Visibility: 10 or more miles (16+ km)
Ceiling: at least 12,000 feet AGL
Clouds: sky clear below 12,000 feet AGL
Weather: automated observation with no human augmentation;
there may or may not be significant weather present at this time

METAR text: KMNH 262335Z AUTO 22008KT 10SM CLR 02/M03 A3020 RMK AO2
Conditions at: KMNH (MONUMENT/ELBERT , CO, US) observed 2335 UTC 26 November 2014
Temperature: 2.0°C (36°F)
Dewpoint: -3.0°C (27°F) [RH = 69%]
Pressure (altimeter): 30.20 inches Hg (1022.8 mb)
Winds: from the SW (220 degrees) at 9 MPH (8 knots; 4.2 m/s)
Visibility: 10 or more miles (16+ km)
Ceiling: at least 12,000 feet AGL
Clouds: sky clear below 12,000 feet AGL
Weather: automated observation with no human augmentation;
there may or may not be significant weather present at this time

METAR text: KMNH 262315Z AUTO 23007KT 10SM CLR 02/M03 A3019 RMK AO2
Conditions at: KMNH (MONUMENT/ELBERT , CO, US) observed 2315 UTC 26 November 2014
Temperature: 2.0°C (36°F)
Dewpoint: -3.0°C (27°F) [RH = 69%]
Pressure (altimeter): 30.19 inches Hg (1022.4 mb)
Winds: from the SW (230 degrees) at 8 MPH (7 knots; 3.6 m/s)
Visibility: 10 or more miles (16+ km)
Ceiling: at least 12,000 feet AGL
Clouds: sky clear below 12,000 feet AGL
Weather: automated observation with no human augmentation;
there may or may not be significant weather present at this time

METAR text: KMNH 262255Z AUTO 24008KT 10SM CLR 04/M03 A3018 RMK AO2
Conditions at: KMNH (MONUMENT/ELBERT , CO, US) observed 2255 UTC 26 November 2014
Temperature: 4.0°C (39°F)
Dewpoint: -3.0°C (27°F) [RH = 60%]
Pressure (altimeter): 30.18 inches Hg (1022.1 mb)
Winds: from the WSW (240 degrees) at 9 MPH (8 knots; 4.2 m/s)
Visibility: 10 or more miles (16+ km)
Ceiling: at least 12,000 feet AGL
Clouds: sky clear below 12,000 feet AGL
Weather: automated observation with no human augmentation;
there may or may not be significant weather present at this time

METAR text: KMNH 262235Z AUTO 24007KT 10SM CLR 07/M03 A3017 RMK AO2
Conditions at: KMNH (MONUMENT/ELBERT , CO, US) observed 2235 UTC 26 November 2014
Temperature: 7.0°C (45°F)
Dewpoint: -3.0°C (27°F) [RH = 49%]
Pressure (altimeter): 30.17 inches Hg (1021.8 mb)
Winds: from the WSW (240 degrees) at 8 MPH (7 knots; 3.6 m/s)
Visibility: 10 or more miles (16+ km)
Ceiling: at least 12,000 feet AGL
Clouds: sky clear below 12,000 feet AGL
Weather: automated observation with no human augmentation;
there may or may not be significant weather present at this time

METAR text: KMNH 262214Z AUTO 28011G14KT 10SM CLR 08/M05 A3016 RMK AO2
Conditions at: KMNH (MONUMENT/ELBERT , CO, US) observed 2214 UTC 26 November 2014
Temperature: 8.0°C (46°F)
Dewpoint: -5.0°C (23°F) [RH = 39%]
Pressure (altimeter): 30.16 inches Hg (1021.4 mb)
Winds: from the W (280 degrees) at 13 MPH (11 knots; 5.7 m/sgusting to 16 MPH (14 knots; 7.3 m/s)
Visibility: 10 or more miles (16+ km)
Ceiling: at least 12,000 feet AGL
Clouds: sky clear below 12,000 feet AGL
Weather: automated observation with no human augmentation;
there may or may not be significant weather present at this time

METAR text: KMNH 262155Z AUTO 27007KT 10SM CLR 07/M05 A3015 RMK AO2
Conditions at: KMNH (MONUMENT/ELBERT , CO, US) observed 2155 UTC 26 November 2014
Temperature: 7.0°C (45°F)
Dewpoint: -5.0°C (23°F) [RH = 42%]
Pressure (altimeter): 30.15 inches Hg (1021.1 mb)
Winds: from the W (270 degrees) at 8 MPH (7 knots; 3.6 m/s)
Visibility: 10 or more miles (16+ km)
Ceiling: at least 12,000 feet AGL
Clouds: sky clear below 12,000 feet AGL
Weather: automated observation with no human augmentation;
there may or may not be significant weather present at this time

METAR text: KMNH 262134Z AUTO 29005KT 10SM CLR 07/M05 A3015 RMK AO2
Conditions at: KMNH (MONUMENT/ELBERT , CO, US) observed 2134 UTC 26 November 2014
Temperature: 7.0°C (45°F)
Dewpoint: -5.0°C (23°F) [RH = 42%]
Pressure (altimeter): 30.15 inches Hg (1021.1 mb)
Winds: from the WNW (290 degrees) at 6 MPH (5 knots; 2.6 m/s)
Visibility: 10 or more miles (16+ km)
Ceiling: at least 12,000 feet AGL
Clouds: sky clear below 12,000 feet AGL
Weather: automated observation with no human augmentation;
there may or may not be significant weather present at this time

METAR text: KMNH 262114Z AUTO 31005KT 10SM CLR 07/M05 A3015 RMK AO2
Conditions at: KMNH (MONUMENT/ELBERT , CO, US) observed 2114 UTC 26 November 2014
Temperature: 7.0°C (45°F)
Dewpoint: -5.0°C (23°F) [RH = 42%]
Pressure (altimeter): 30.15 inches Hg (1021.1 mb)
Winds: from the NW (310 degrees) at 6 MPH (5 knots; 2.6 m/s)
Visibility: 10 or more miles (16+ km)
Ceiling: at least 12,000 feet AGL
Clouds: sky clear below 12,000 feet AGL
Weather: automated observation with no human augmentation;
there may or may not be significant weather present at this time

METAR text: KMNH 262055Z AUTO 36003KT 10SM CLR 06/M05 A3015 RMK AO2
Conditions at: KMNH (MONUMENT/ELBERT , CO, US) observed 2055 UTC 26 November 2014
Temperature: 6.0°C (43°F)
Dewpoint: -5.0°C (23°F) [RH = 45%]
Pressure (altimeter): 30.15 inches Hg (1021.1 mb)
Winds: from the N (360 degrees) at 3 MPH (3 knots; 1.6 m/s)
Visibility: 10 or more miles (16+ km)
Ceiling: at least 12,000 feet AGL
Clouds: sky clear below 12,000 feet AGL
Weather: automated observation with no human augmentation;
there may or may not be significant weather present at this time

METAR text: KMNH 262035Z AUTO 35004KT 10SM CLR 06/M04 A3015 RMK AO2
Conditions at: KMNH (MONUMENT/ELBERT , CO, US) observed 2035 UTC 26 November 2014
Temperature: 6.0°C (43°F)
Dewpoint: -4.0°C (25°F) [RH = 49%]
Pressure (altimeter): 30.15 inches Hg (1021.1 mb)
Winds: from the N (350 degrees) at 5 MPH (4 knots; 2.1 m/s)
Visibility: 10 or more miles (16+ km)
Ceiling: at least 12,000 feet AGL
Clouds: sky clear below 12,000 feet AGL
Weather: automated observation with no human augmentation;
there may or may not be significant weather present at this time

METAR text: KMNH 262015Z AUTO 36005KT 10SM CLR 05/M04 A3015 RMK AO2
Conditions at: KMNH (MONUMENT/ELBERT , CO, US) observed 2015 UTC 26 November 2014
Temperature: 5.0°C (41°F)
Dewpoint: -4.0°C (25°F) [RH = 52%]
Pressure (altimeter): 30.15 inches Hg (1021.1 mb)
Winds: from the N (360 degrees) at 6 MPH (5 knots; 2.6 m/s)
Visibility: 10 or more miles (16+ km)
Ceiling: at least 12,000 feet AGL
Clouds: sky clear below 12,000 feet AGL
Weather: automated observation with no human augmentation;
there may or may not be significant weather present at this time

METAR text: KMNH 261955Z AUTO 35007KT 10SM CLR 06/M03 A3013 RMK AO2
Conditions at: KMNH (MONUMENT/ELBERT , CO, US) observed 1955 UTC 26 November 2014
Temperature: 6.0°C (43°F)
Dewpoint: -3.0°C (27°F) [RH = 52%]
Pressure (altimeter): 30.13 inches Hg (1020.4 mb)
Winds: from the N (350 degrees) at 8 MPH (7 knots; 3.6 m/s)
Visibility: 10 or more miles (16+ km)
Ceiling: at least 12,000 feet AGL
Clouds: sky clear below 12,000 feet AGL
Weather: automated observation with no human augmentation;
there may or may not be significant weather present at this time

METAR text: KMNH 261935Z AUTO 00000KT 10SM CLR 05/M03 A3013 RMK AO2
Conditions at: KMNH (MONUMENT/ELBERT , CO, US) observed 1935 UTC 26 November 2014
Temperature: 5.0°C (41°F)
Dewpoint: -3.0°C (27°F) [RH = 56%]
Pressure (altimeter): 30.13 inches Hg (1020.4 mb)
Winds: calm
Visibility: 10 or more miles (16+ km)
Ceiling: at least 12,000 feet AGL
Clouds: sky clear below 12,000 feet AGL
Weather: automated observation with no human augmentation;
there may or may not be significant weather present at this time

METAR text: KMNH 261915Z AUTO 34003KT 10SM CLR 03/M03 A3015 RMK AO2
Conditions at: KMNH (MONUMENT/ELBERT , CO, US) observed 1915 UTC 26 November 2014
Temperature: 3.0°C (37°F)
Dewpoint: -3.0°C (27°F) [RH = 65%]
Pressure (altimeter): 30.15 inches Hg (1021.1 mb)
Winds: from the NNW (340 degrees) at 3 MPH (3 knots; 1.6 m/s)
Visibility: 10 or more miles (16+ km)
Ceiling: at least 12,000 feet AGL
Clouds: sky clear below 12,000 feet AGL
Weather: automated observation with no human augmentation;
there may or may not be significant weather present at this time

METAR text: KMNH 261855Z AUTO 35003KT 10SM CLR 03/M02 A3015 RMK AO2
Conditions at: KMNH (MONUMENT/ELBERT , CO, US) observed 1855 UTC 26 November 2014
Temperature: 3.0°C (37°F)
Dewpoint: -2.0°C (28°F) [RH = 70%]
Pressure (altimeter): 30.15 inches Hg (1021.1 mb)
Winds: from the N (350 degrees) at 3 MPH (3 knots; 1.6 m/s)
Visibility: 10 or more miles (16+ km)
Ceiling: at least 12,000 feet AGL
Clouds: sky clear below 12,000 feet AGL
Weather: automated observation with no human augmentation;
there may or may not be significant weather present at this time

METAR text: KMNH 261835Z AUTO 08003KT 10SM CLR 03/M02 A3015 RMK AO2
Conditions at: KMNH (MONUMENT/ELBERT , CO, US) observed 1835 UTC 26 November 2014
Temperature: 3.0°C (37°F)
Dewpoint: -2.0°C (28°F) [RH = 70%]
Pressure (altimeter): 30.15 inches Hg (1021.1 mb)
Winds: from the E (80 degrees) at 3 MPH (3 knots; 1.6 m/s)
Visibility: 10 or more miles (16+ km)
Ceiling: at least 12,000 feet AGL
Clouds: sky clear below 12,000 feet AGL
Weather: automated observation with no human augmentation;
there may or may not be significant weather present at this time

METAR text: KMNH 261815Z AUTO 00000KT 10SM CLR 03/M02 A3015 RMK AO2
Conditions at: KMNH (MONUMENT/ELBERT , CO, US) observed 1815 UTC 26 November 2014
Temperature: 3.0°C (37°F)
Dewpoint: -2.0°C (28°F) [RH = 70%]
Pressure (altimeter): 30.15 inches Hg (1021.1 mb)
Winds: calm
Visibility: 10 or more miles (16+ km)
Ceiling: at least 12,000 feet AGL
Clouds: sky clear below 12,000 feet AGL
Weather: automated observation with no human augmentation;
there may or may not be significant weather present at this time

METAR text: KMNH 261755Z AUTO 00000KT 10SM CLR 02/M02 A3015 RMK AO2
Conditions at: KMNH (MONUMENT/ELBERT , CO, US) observed 1755 UTC 26 November 2014
Temperature: 2.0°C (36°F)
Dewpoint: -2.0°C (28°F) [RH = 75%]
Pressure (altimeter): 30.15 inches Hg (1021.1 mb)
Winds: calm
Visibility: 10 or more miles (16+ km)
Ceiling: at least 12,000 feet AGL
Clouds: sky clear below 12,000 feet AGL
Weather: automated observation with no human augmentation;
there may or may not be significant weather present at this time

METAR text: KMNH 261735Z AUTO 19008KT 10SM CLR 01/M02 A3013 RMK AO2
Conditions at: KMNH (MONUMENT/ELBERT , CO, US) observed 1735 UTC 26 November 2014
Temperature: 1.0°C (34°F)
Dewpoint: -2.0°C (28°F) [RH = 80%]
Pressure (altimeter): 30.13 inches Hg (1020.4 mb)
Winds: from the S (190 degrees) at 9 MPH (8 knots; 4.2 m/s)
Visibility: 10 or more miles (16+ km)
Ceiling: at least 12,000 feet AGL
Clouds: sky clear below 12,000 feet AGL
Weather: automated observation with no human augmentation;
there may or may not be significant weather present at this time

METAR text: KMNH 261715Z AUTO 17008KT 10SM CLR 00/M02 A3014 RMK AO2
Conditions at: KMNH (MONUMENT/ELBERT , CO, US) observed 1715 UTC 26 November 2014
Temperature: 0.0°C (32°F)
Dewpoint: -2.0°C (28°F) [RH = 86%]
Pressure (altimeter): 30.14 inches Hg (1020.7 mb)
Winds: from the S (170 degrees) at 9 MPH (8 knots; 4.2 m/s)
Visibility: 10 or more miles (16+ km)
Ceiling: at least 12,000 feet AGL
Clouds: sky clear below 12,000 feet AGL
Weather: automated observation with no human augmentation;
there may or may not be significant weather present at this time

METAR text: KMNH 261655Z AUTO 19005KT 10SM CLR 00/M02 A3015 RMK AO2
Conditions at: KMNH (MONUMENT/ELBERT , CO, US) observed 1655 UTC 26 November 2014
Temperature: 0.0°C (32°F)
Dewpoint: -2.0°C (28°F) [RH = 86%]
Pressure (altimeter): 30.15 inches Hg (1021.1 mb)
Winds: from the S (190 degrees) at 6 MPH (5 knots; 2.6 m/s)
Visibility: 10 or more miles (16+ km)
Ceiling: at least 12,000 feet AGL
Clouds: sky clear below 12,000 feet AGL
Weather: automated observation with no human augmentation;
there may or may not be significant weather present at this time

METAR text: KMNH 261635Z AUTO 16004KT 10SM SCT003 SCT006 M01/M03 A3016 RMK AO2
Conditions at: KMNH (MONUMENT/ELBERT , CO, US) observed 1635 UTC 26 November 2014
Temperature: -1.0°C (30°F)
Dewpoint: -3.0°C (27°F) [RH = 86%]
Pressure (altimeter): 30.16 inches Hg (1021.4 mb)
Winds: from the SSE (160 degrees) at 5 MPH (4 knots; 2.1 m/s)
Visibility: 10 or more miles (16+ km)
Ceiling: at least 12,000 feet AGL
Clouds: scattered clouds at 300 feet AGL
scattered clouds at 600 feet AGL
Weather: automated observation with no human augmentation;
there may or may not be significant weather present at this time

METAR text: KMNH 261615Z AUTO 21009KT 10SM OVC003 M03/M03 A3013 RMK AO2
Conditions at: KMNH (MONUMENT/ELBERT , CO, US) observed 1615 UTC 26 November 2014
Temperature: -3.0°C (27°F)
Dewpoint: -3.0°C (27°F) [RH = 100%]
Pressure (altimeter): 30.13 inches Hg (1020.4 mb)
Winds: from the SSW (210 degrees) at 10 MPH (9 knots; 4.7 m/s)
Visibility: 10 or more miles (16+ km)
Ceiling: 300 feet AGL
Clouds: overcast cloud deck at 300 feet AGL
Weather: automated observation with no human augmentation;
there may or may not be significant weather present at this time

METAR text: KMNH 261555Z AUTO 19007KT 3SM BR OVC003 M05/M05 A3016 RMK AO2
Conditions at: KMNH (MONUMENT/ELBERT , CO, US) observed 1555 UTC 26 November 2014
Temperature: -5.0°C (23°F)
Dewpoint: -5.0°C (23°F) [RH = 100%]
Pressure (altimeter): 30.16 inches Hg (1021.4 mb)
Winds: from the S (190 degrees) at 8 MPH (7 knots; 3.6 m/s)
Visibility: 3 miles (5 km)
Ceiling: 300 feet AGL
Clouds: overcast cloud deck at 300 feet AGL
Weather: BR  (mist)

METAR text: KMNH 261535Z AUTO 20005KT 10SM BKN003 M05/M06 A3016 RMK AO2
Conditions at: KMNH (MONUMENT/ELBERT , CO, US) observed 1535 UTC 26 November 2014
Temperature: -5.0°C (23°F)
Dewpoint: -6.0°C (21°F) [RH = 93%]
Pressure (altimeter): 30.16 inches Hg (1021.4 mb)
Winds: from the SSW (200 degrees) at 6 MPH (5 knots; 2.6 m/s)
Visibility: 10 or more miles (16+ km)
Ceiling: 300 feet AGL
Clouds: broken clouds at 300 feet AGL
Weather: automated observation with no human augmentation;
there may or may not be significant weather present at this time

METAR text: KMNH 261515Z AUTO 17004KT 10SM CLR M05/M06 A3016 RMK AO2
Conditions at: KMNH (MONUMENT/ELBERT , CO, US) observed 1515 UTC 26 November 2014
Temperature: -5.0°C (23°F)
Dewpoint: -6.0°C (21°F) [RH = 93%]
Pressure (altimeter): 30.16 inches Hg (1021.4 mb)
Winds: from the S (170 degrees) at 5 MPH (4 knots; 2.1 m/s)
Visibility: 10 or more miles (16+ km)
Ceiling: at least 12,000 feet AGL
Clouds: sky clear below 12,000 feet AGL
Weather: automated observation with no human augmentation;
there may or may not be significant weather present at this time

METAR text: KMNH 261455Z AUTO 17004KT 10SM CLR M06/M07 A3016 RMK AO2
Conditions at: KMNH (MONUMENT/ELBERT , CO, US) observed 1455 UTC 26 November 2014
Temperature: -6.0°C (21°F)
Dewpoint: -7.0°C (19°F) [RH = 93%]
Pressure (altimeter): 30.16 inches Hg (1021.4 mb)
Winds: from the S (170 degrees) at 5 MPH (4 knots; 2.1 m/s)
Visibility: 10 or more miles (16+ km)
Ceiling: at least 12,000 feet AGL
Clouds: sky clear below 12,000 feet AGL
Weather: automated observation with no human augmentation;
there may or may not be significant weather present at this time

METAR text: KMNH 261435Z AUTO 00000KT 10SM CLR M07/M08 A3017 RMK AO2
Conditions at: KMNH (MONUMENT/ELBERT , CO, US) observed 1435 UTC 26 November 2014
Temperature: -7.0°C (19°F)
Dewpoint: -8.0°C (18°F) [RH = 93%]
Pressure (altimeter): 30.17 inches Hg (1021.8 mb)
Winds: calm
Visibility: 10 or more miles (16+ km)
Ceiling: at least 12,000 feet AGL
Clouds: sky clear below 12,000 feet AGL
Weather: automated observation with no human augmentation;
there may or may not be significant weather present at this time

METAR text: KMNH 261415Z AUTO 15004KT 10SM SCT013 M08/M09 A3016 RMK AO2
Conditions at: KMNH (MONUMENT/ELBERT , CO, US) observed 1415 UTC 26 November 2014
Temperature: -8.0°C (18°F)
Dewpoint: -9.0°C (16°F) [RH = 92%]
Pressure (altimeter): 30.16 inches Hg (1021.4 mb)
Winds: from the SSE (150 degrees) at 5 MPH (4 knots; 2.1 m/s)
Visibility: 10 or more miles (16+ km)
Ceiling: at least 12,000 feet AGL
Clouds: scattered clouds at 1300 feet AGL
Weather: automated observation with no human augmentation;
there may or may not be significant weather present at this time

METAR text: KMNH 261355Z AUTO 00000KT 10SM SCT013 M08/M09 A3016 RMK AO2
Conditions at: KMNH (MONUMENT/ELBERT , CO, US) observed 1355 UTC 26 November 2014
Temperature: -8.0°C (18°F)
Dewpoint: -9.0°C (16°F) [RH = 92%]
Pressure (altimeter): 30.16 inches Hg (1021.4 mb)
Winds: calm
Visibility: 10 or more miles (16+ km)
Ceiling: at least 12,000 feet AGL
Clouds: scattered clouds at 1300 feet AGL
Weather: automated observation with no human augmentation;
there may or may not be significant weather present at this time

METAR text: KMNH 261335Z AUTO 00000KT 10SM SCT013 M08/M09 A3015 RMK AO2
Conditions at: KMNH (MONUMENT/ELBERT , CO, US) observed 1335 UTC 26 November 2014
Temperature: -8.0°C (18°F)
Dewpoint: -9.0°C (16°F) [RH = 92%]
Pressure (altimeter): 30.15 inches Hg (1021.1 mb)
Winds: calm
Visibility: 10 or more miles (16+ km)
Ceiling: at least 12,000 feet AGL
Clouds: scattered clouds at 1300 feet AGL
Weather: automated observation with no human augmentation;
there may or may not be significant weather present at this time

METAR text: KMNH 261315Z AUTO 00000KT 10SM OVC013 M07/M08 A3015 RMK AO2
Conditions at: KMNH (MONUMENT/ELBERT , CO, US) observed 1315 UTC 26 November 2014
Temperature: -7.0°C (19°F)
Dewpoint: -8.0°C (18°F) [RH = 93%]
Pressure (altimeter): 30.15 inches Hg (1021.1 mb)
Winds: calm
Visibility: 10 or more miles (16+ km)
Ceiling: 1300 feet AGL
Clouds: overcast cloud deck at 1300 feet AGL
Weather: automated observation with no human augmentation;
there may or may not be significant weather present at this time

METAR text: KMNH 261255Z AUTO 00000KT 10SM OVC013 M06/M07 A3017 RMK AO2
Conditions at: KMNH (MONUMENT/ELBERT , CO, US) observed 1255 UTC 26 November 2014
Temperature: -6.0°C (21°F)
Dewpoint: -7.0°C (19°F) [RH = 93%]
Pressure (altimeter): 30.17 inches Hg (1021.8 mb)
Winds: calm
Visibility: 10 or more miles (16+ km)
Ceiling: 1300 feet AGL
Clouds: overcast cloud deck at 1300 feet AGL
Weather: automated observation with no human augmentation;
there may or may not be significant weather present at this time

METAR text: KMNH 261235Z AUTO 00000KT 10SM OVC013 M06/M07 A3016 RMK AO2
Conditions at: KMNH (MONUMENT/ELBERT , CO, US) observed 1235 UTC 26 November 2014
Temperature: -6.0°C (21°F)
Dewpoint: -7.0°C (19°F) [RH = 93%]
Pressure (altimeter): 30.16 inches Hg (1021.4 mb)
Winds: calm
Visibility: 10 or more miles (16+ km)
Ceiling: 1300 feet AGL
Clouds: overcast cloud deck at 1300 feet AGL
Weather: automated observation with no human augmentation;
there may or may not be significant weather present at this time

METAR text: KMNH 261214Z AUTO 00000KT 10SM SCT006 OVC011 M06/M07 A3015 RMK AO2
Conditions at: KMNH (MONUMENT/ELBERT , CO, US) observed 1214 UTC 26 November 2014
Temperature: -6.0°C (21°F)
Dewpoint: -7.0°C (19°F) [RH = 93%]
Pressure (altimeter): 30.15 inches Hg (1021.1 mb)
Winds: calm
Visibility: 10 or more miles (16+ km)
Ceiling: 1100 feet AGL
Clouds: scattered clouds at 600 feet AGL
overcast cloud deck at 1100 feet AGL
Weather: automated observation with no human augmentation;
there may or may not be significant weather present at this time

METAR text: KMNH 261155Z AUTO 04004KT 10SM BKN003 OVC009 M06/M07 A3015 RMK AO2
Conditions at: KMNH (MONUMENT/ELBERT , CO, US) observed 1155 UTC 26 November 2014
Temperature: -6.0°C (21°F)
Dewpoint: -7.0°C (19°F) [RH = 93%]
Pressure (altimeter): 30.15 inches Hg (1021.1 mb)
Winds: from the NE (40 degrees) at 5 MPH (4 knots; 2.1 m/s)
Visibility: 10 or more miles (16+ km)
Ceiling: 300 feet AGL
Clouds: broken clouds at 300 feet AGL
overcast cloud deck at 900 feet AGL
Weather: automated observation with no human augmentation;
there may or may not be significant weather present at this time

METAR text: KMNH 261135Z AUTO 03006KT 4SM BR OVC003 M06/M06 A3015 RMK AO2
Conditions at: KMNH (MONUMENT/ELBERT , CO, US) observed 1135 UTC 26 November 2014
Temperature: -6.0°C (21°F)
Dewpoint: -6.0°C (21°F) [RH = 100%]
Pressure (altimeter): 30.15 inches Hg (1021.1 mb)
Winds: from the NNE (30 degrees) at 7 MPH (6 knots; 3.1 m/s)
Visibility: 4 miles (6 km)
Ceiling: 300 feet AGL
Clouds: overcast cloud deck at 300 feet AGL
Weather: BR  (mist)

METAR text: KMNH 261115Z AUTO 04005KT 3SM BR OVC003 M06/M06 A3015 RMK AO2
Conditions at: KMNH (MONUMENT/ELBERT , CO, US) observed 1115 UTC 26 November 2014
Temperature: -6.0°C (21°F)
Dewpoint: -6.0°C (21°F) [RH = 100%]
Pressure (altimeter): 30.15 inches Hg (1021.1 mb)
Winds: from the NE (40 degrees) at 6 MPH (5 knots; 2.6 m/s)
Visibility: 3 miles (5 km)
Ceiling: 300 feet AGL
Clouds: overcast cloud deck at 300 feet AGL
Weather: BR  (mist)

METAR text: KMNH 261055Z AUTO 04003KT 4SM BR BKN003 OVC006 M06/M06 A3013 RMK AO2
Conditions at: KMNH (MONUMENT/ELBERT , CO, US) observed 1055 UTC 26 November 2014
Temperature: -6.0°C (21°F)
Dewpoint: -6.0°C (21°F) [RH = 100%]
Pressure (altimeter): 30.13 inches Hg (1020.4 mb)
Winds: from the NE (40 degrees) at 3 MPH (3 knots; 1.6 m/s)
Visibility: 4 miles (6 km)
Ceiling: 300 feet AGL
Clouds: broken clouds at 300 feet AGL
overcast cloud deck at 600 feet AGL
Weather: BR  (mist)

METAR text: KMNH 261035Z AUTO 04004KT 7SM OVC004 M06/M06 A3013 RMK AO2
Conditions at: KMNH (MONUMENT/ELBERT , CO, US) observed 1035 UTC 26 November 2014
Temperature: -6.0°C (21°F)
Dewpoint: -6.0°C (21°F) [RH = 100%]
Pressure (altimeter): 30.13 inches Hg (1020.4 mb)
Winds: from the NE (40 degrees) at 5 MPH (4 knots; 2.1 m/s)
Visibility: 7 miles (11 km)
Ceiling: 400 feet AGL
Clouds: overcast cloud deck at 400 feet AGL
Weather: automated observation with no human augmentation;
there may or may not be significant weather present at this time

METAR text: KMNH 261015Z AUTO 04007KT 5SM BR OVC004 M05/M05 A3013 RMK AO2
Conditions at: KMNH (MONUMENT/ELBERT , CO, US) observed 1015 UTC 26 November 2014
Temperature: -5.0°C (23°F)
Dewpoint: -5.0°C (23°F) [RH = 100%]
Pressure (altimeter): 30.13 inches Hg (1020.4 mb)
Winds: from the NE (40 degrees) at 8 MPH (7 knots; 3.6 m/s)
Visibility: 5 miles (8 km)
Ceiling: 400 feet AGL
Clouds: overcast cloud deck at 400 feet AGL
Weather: BR  (mist)

METAR text: KMNH 260955Z AUTO 02005KT 10SM BKN004 OVC012 M05/M05 A3012 RMK AO2
Conditions at: KMNH (MONUMENT/ELBERT , CO, US) observed 0955 UTC 26 November 2014
Temperature: -5.0°C (23°F)
Dewpoint: -5.0°C (23°F) [RH = 100%]
Pressure (altimeter): 30.12 inches Hg (1020.1 mb)
Winds: from the NNE (20 degrees) at 6 MPH (5 knots; 2.6 m/s)
Visibility: 10 or more miles (16+ km)
Ceiling: 400 feet AGL
Clouds: broken clouds at 400 feet AGL
overcast cloud deck at 1200 feet AGL
Weather: automated observation with no human augmentation;
there may or may not be significant weather present at this time

METAR text: KMNH 260935Z AUTO 36005KT 10SM BKN006 OVC012 M05/M05 A3012 RMK AO2
Conditions at: KMNH (MONUMENT/ELBERT , CO, US) observed 0935 UTC 26 November 2014
Temperature: -5.0°C (23°F)
Dewpoint: -5.0°C (23°F) [RH = 100%]
Pressure (altimeter): 30.12 inches Hg (1020.1 mb)
Winds: from the N (360 degrees) at 6 MPH (5 knots; 2.6 m/s)
Visibility: 10 or more miles (16+ km)
Ceiling: 600 feet AGL
Clouds: broken clouds at 600 feet AGL
overcast cloud deck at 1200 feet AGL
Weather: automated observation with no human augmentation;
there may or may not be significant weather present at this time

METAR text: KMNH 260915Z AUTO 01005KT 4SM BR BKN002 OVC006 M05/M05 A3012 RMK AO2
Conditions at: KMNH (MONUMENT/ELBERT , CO, US) observed 0915 UTC 26 November 2014
Temperature: -5.0°C (23°F)
Dewpoint: -5.0°C (23°F) [RH = 100%]
Pressure (altimeter): 30.12 inches Hg (1020.1 mb)
Winds: from the N (10 degrees) at 6 MPH (5 knots; 2.6 m/s)
Visibility: 4 miles (6 km)
Ceiling: 200 feet AGL
Clouds: broken clouds at 200 feet AGL
overcast cloud deck at 600 feet AGL
Weather: BR  (mist)

METAR text: KMNH 260855Z AUTO 01005KT 2SM BR OVC002 M04/M05 A3011 RMK AO2
Conditions at: KMNH (MONUMENT/ELBERT , CO, US) observed 0855 UTC 26 November 2014
Temperature: -4.0°C (25°F)
Dewpoint: -5.0°C (23°F) [RH = 93%]
Pressure (altimeter): 30.11 inches Hg (1019.7 mb)
Winds: from the N (10 degrees) at 6 MPH (5 knots; 2.6 m/s)
Visibility: 2.00 miles (3.22 km)
Ceiling: 200 feet AGL
Clouds: overcast cloud deck at 200 feet AGL
Weather: BR  (mist)

METAR text: KMNH 260835Z AUTO 01004KT 1 3/4SM BR OVC002 M05/M05 A3010 RMK AO2
Conditions at: KMNH (MONUMENT/ELBERT , CO, US) observed 0835 UTC 26 November 2014
Temperature: -5.0°C (23°F)
Dewpoint: -5.0°C (23°F) [RH = 100%]
Pressure (altimeter): 30.10 inches Hg (1019.4 mb)
Winds: from the N (10 degrees) at 5 MPH (4 knots; 2.1 m/s)
Visibility: 1.75 miles (2.82 km)
Ceiling: 200 feet AGL
Clouds: overcast cloud deck at 200 feet AGL
Weather: BR  (mist)

METAR text: KMNH 260815Z AUTO 02006KT 5SM BR OVC002 M05/M05 A3010 RMK AO2
Conditions at: KMNH (MONUMENT/ELBERT , CO, US) observed 0815 UTC 26 November 2014
Temperature: -5.0°C (23°F)
Dewpoint: -5.0°C (23°F) [RH = 100%]
Pressure (altimeter): 30.10 inches Hg (1019.4 mb)
Winds: from the NNE (20 degrees) at 7 MPH (6 knots; 3.1 m/s)
Visibility: 5 miles (8 km)
Ceiling: 200 feet AGL
Clouds: overcast cloud deck at 200 feet AGL
Weather: BR  (mist)

METAR text: KMNH 260755Z AUTO 02008KT 10SM OVC002 M05/M05 A3010 RMK AO2
Conditions at: KMNH (MONUMENT/ELBERT , CO, US) observed 0755 UTC 26 November 2014
Temperature: -5.0°C (23°F)
Dewpoint: -5.0°C (23°F) [RH = 100%]
Pressure (altimeter): 30.10 inches Hg (1019.4 mb)
Winds: from the NNE (20 degrees) at 9 MPH (8 knots; 4.2 m/s)
Visibility: 10 or more miles (16+ km)
Ceiling: 200 feet AGL
Clouds: overcast cloud deck at 200 feet AGL
Weather: automated observation with no human augmentation;
there may or may not be significant weather present at this time

METAR text: KMNH 260734Z AUTO 03007KT 7SM OVC002 M05/M05 A3010 RMK AO2
Conditions at: KMNH (MONUMENT/ELBERT , CO, US) observed 0734 UTC 26 November 2014
Temperature: -5.0°C (23°F)
Dewpoint: -5.0°C (23°F) [RH = 100%]
Pressure (altimeter): 30.10 inches Hg (1019.4 mb)
Winds: from the NNE (30 degrees) at 8 MPH (7 knots; 3.6 m/s)
Visibility: 7 miles (11 km)
Ceiling: 200 feet AGL
Clouds: overcast cloud deck at 200 feet AGL
Weather: automated observation with no human augmentation;
there may or may not be significant weather present at this time

METAR text: KMNH 260715Z AUTO 04008KT 10SM OVC002 M04/M05 A3010 RMK AO2
Conditions at: KMNH (MONUMENT/ELBERT , CO, US) observed 0715 UTC 26 November 2014
Temperature: -4.0°C (25°F)
Dewpoint: -5.0°C (23°F) [RH = 93%]
Pressure (altimeter): 30.10 inches Hg (1019.4 mb)
Winds: from the NE (40 degrees) at 9 MPH (8 knots; 4.2 m/s)
Visibility: 10 or more miles (16+ km)
Ceiling: 200 feet AGL
Clouds: overcast cloud deck at 200 feet AGL
Weather: automated observation with no human augmentation;
there may or may not be significant weather present at this time

METAR text: KMNH 260655Z AUTO 03008KT 5SM BR OVC002 M04/M05 A3010 RMK AO2
Conditions at: KMNH (MONUMENT/ELBERT , CO, US) observed 0655 UTC 26 November 2014
Temperature: -4.0°C (25°F)
Dewpoint: -5.0°C (23°F) [RH = 93%]
Pressure (altimeter): 30.10 inches Hg (1019.4 mb)
Winds: from the NNE (30 degrees) at 9 MPH (8 knots; 4.2 m/s)
Visibility: 5 miles (8 km)
Ceiling: 200 feet AGL
Clouds: overcast cloud deck at 200 feet AGL
Weather: BR  (mist)

METAR text: KMNH 260634Z AUTO 04009G15KT 5SM BR OVC002 M04/M04 A3009 RMK AO2
Conditions at: KMNH (MONUMENT/ELBERT , CO, US) observed 0634 UTC 26 November 2014
Temperature: -4.0°C (25°F)
Dewpoint: -4.0°C (25°F) [RH = 100%]
Pressure (altimeter): 30.09 inches Hg (1019.0 mb)
Winds: from the NE (40 degrees) at 10 MPH (9 knots; 4.7 m/sgusting to 17 MPH (15 knots; 7.8 m/s)
Visibility: 5 miles (8 km)
Ceiling: 200 feet AGL
Clouds: overcast cloud deck at 200 feet AGL
Weather: BR  (mist)

METAR text: KMNH 260615Z AUTO 04012KT 1/4SM +SN OVC002 M03/M03 A3007 RMK AO2
Conditions at: KMNH (MONUMENT/ELBERT , CO, US) observed 0615 UTC 26 November 2014
Temperature: -3.0°C (27°F)
Dewpoint: -3.0°C (27°F) [RH = 100%]
Pressure (altimeter): 30.07 inches Hg (1018.4 mb)
Winds: from the NE (40 degrees) at 14 MPH (12 knots; 6.2 m/s)
Visibility: 0.25 miles (0.40 km)
Ceiling: 200 feet AGL
Clouds: overcast cloud deck at 200 feet AGL
Weather: +SN  (heavy snow)

METAR text: KMNH 260555Z AUTO 04012KT 1/4SM SN OVC002 M03/M03 A3007 RMK AO2
Conditions at: KMNH (MONUMENT/ELBERT , CO, US) observed 0555 UTC 26 November 2014
Temperature: -3.0°C (27°F)
Dewpoint: -3.0°C (27°F) [RH = 100%]
Pressure (altimeter): 30.07 inches Hg (1018.4 mb)
Winds: from the NE (40 degrees) at 14 MPH (12 knots; 6.2 m/s)
Visibility: 0.25 miles (0.40 km)
Ceiling: 200 feet AGL
Clouds: overcast cloud deck at 200 feet AGL
Weather: SN  (snow)

METAR text: KMNH 260535Z AUTO 05013KT 5SM BR OVC002 M02/M03 A3005 RMK AO2
Conditions at: KMNH (MONUMENT/ELBERT , CO, US) observed 0535 UTC 26 November 2014
Temperature: -2.0°C (28°F)
Dewpoint: -3.0°C (27°F) [RH = 93%]
Pressure (altimeter): 30.05 inches Hg (1017.7 mb)
Winds: from the NE (50 degrees) at 15 MPH (13 knots; 6.8 m/s)
Visibility: 5 miles (8 km)
Ceiling: 200 feet AGL
Clouds: overcast cloud deck at 200 feet AGL
Weather: BR  (mist)

METAR text: KMNH 260514Z AUTO 04010G14KT 4SM BR BKN002 BKN085 OVC110 M02/M02 A3005 RMK AO2
Conditions at: KMNH (MONUMENT/ELBERT , CO, US) observed 0514 UTC 26 November 2014
Temperature: -2.0°C (28°F)
Dewpoint: -2.0°C (28°F) [RH = 100%]
Pressure (altimeter): 30.05 inches Hg (1017.7 mb)
Winds: from the NE (40 degrees) at 12 MPH (10 knots; 5.2 m/sgusting to 16 MPH (14 knots; 7.3 m/s)
Visibility: 4 miles (6 km)
Ceiling: 200 feet AGL
Clouds: broken clouds at 200 feet AGL
broken clouds at 8500 feet AGL
overcast cloud deck at 11000 feet AGL
Weather: BR  (mist)

METAR text: KMNH 260455Z AUTO 04011G16KT 10SM SCT004 SCT085 BKN110 M02/M03 A3005 RMK AO2
Conditions at: KMNH (MONUMENT/ELBERT , CO, US) observed 0455 UTC 26 November 2014
Temperature: -2.0°C (28°F)
Dewpoint: -3.0°C (27°F) [RH = 93%]
Pressure (altimeter): 30.05 inches Hg (1017.7 mb)
Winds: from the NE (40 degrees) at 13 MPH (11 knots; 5.7 m/sgusting to 18 MPH (16 knots; 8.3 m/s)
Visibility: 10 or more miles (16+ km)
Ceiling: 11000 feet AGL
Clouds: scattered clouds at 400 feet AGL
scattered clouds at 8500 feet AGL
broken clouds at 11000 feet AGL
Weather: automated observation with no human augmentation;
there may or may not be significant weather present at this time

METAR text: KMNH 260435Z AUTO 29009KT 10SM BKN110 00/M06 A3001 RMK AO2
Conditions at: KMNH (MONUMENT/ELBERT , CO, US) observed 0435 UTC 26 November 2014
Temperature: 0.0°C (32°F)
Dewpoint: -6.0°C (21°F) [RH = 64%]
Pressure (altimeter): 30.01 inches Hg (1016.3 mb)
Winds: from the WNW (290 degrees) at 10 MPH (9 knots; 4.7 m/s)
Visibility: 10 or more miles (16+ km)
Ceiling: 11000 feet AGL
Clouds: broken clouds at 11000 feet AGL
Weather: automated observation with no human augmentation;
there may or may not be significant weather present at this time

METAR text: KMNH 260415Z AUTO 30008KT 10SM SCT120 M01/M06 A3000 RMK AO2
Conditions at: KMNH (MONUMENT/ELBERT , CO, US) observed 0415 UTC 26 November 2014
Temperature: -1.0°C (30°F)
Dewpoint: -6.0°C (21°F) [RH = 69%]
Pressure (altimeter): 30.00 inches Hg (1016.0 mb)
Winds: from the WNW (300 degrees) at 9 MPH (8 knots; 4.2 m/s)
Visibility: 10 or more miles (16+ km)
Ceiling: at least 12,000 feet AGL
Clouds: scattered clouds at 12000 feet AGL
Weather: automated observation with no human augmentation;
there may or may not be significant weather present at this time

METAR text: KMNH 260355Z AUTO 28007KT 10SM CLR M02/M07 A2998 RMK AO2
Conditions at: KMNH (MONUMENT/ELBERT , CO, US) observed 0355 UTC 26 November 2014
Temperature: -2.0°C (28°F)
Dewpoint: -7.0°C (19°F) [RH = 69%]
Pressure (altimeter): 29.98 inches Hg (1015.3 mb)
Winds: from the W (280 degrees) at 8 MPH (7 knots; 3.6 m/s)
Visibility: 10 or more miles (16+ km)
Ceiling: at least 12,000 feet AGL
Clouds: sky clear below 12,000 feet AGL
Weather: automated observation with no human augmentation;
there may or may not be significant weather present at this time

METAR text: KMNH 260335Z AUTO 27007KT 10SM CLR M01/M06 A2999 RMK AO2
Conditions at: KMNH (MONUMENT/ELBERT , CO, US) observed 0335 UTC 26 November 2014
Temperature: -1.0°C (30°F)
Dewpoint: -6.0°C (21°F) [RH = 69%]
Pressure (altimeter): 29.99 inches Hg (1015.7 mb)
Winds: from the W (270 degrees) at 8 MPH (7 knots; 3.6 m/s)
Visibility: 10 or more miles (16+ km)
Ceiling: at least 12,000 feet AGL
Clouds: sky clear below 12,000 feet AGL
Weather: automated observation with no human augmentation;
there may or may not be significant weather present at this time

METAR text: KMNH 260315Z AUTO 27006KT 10SM CLR M01/M07 A2997 RMK AO2
Conditions at: KMNH (MONUMENT/ELBERT , CO, US) observed 0315 UTC 26 November 2014
Temperature: -1.0°C (30°F)
Dewpoint: -7.0°C (19°F) [RH = 64%]
Pressure (altimeter): 29.97 inches Hg (1015.0 mb)
Winds: from the W (270 degrees) at 7 MPH (6 knots; 3.1 m/s)
Visibility: 10 or more miles (16+ km)
Ceiling: at least 12,000 feet AGL
Clouds: sky clear below 12,000 feet AGL
Weather: automated observation with no human augmentation;
there may or may not be significant weather present at this time

METAR text: KMNH 260255Z AUTO 26005KT 10SM CLR M02/M07 A2996 RMK AO2
Conditions at: KMNH (MONUMENT/ELBERT , CO, US) observed 0255 UTC 26 November 2014
Temperature: -2.0°C (28°F)
Dewpoint: -7.0°C (19°F) [RH = 69%]
Pressure (altimeter): 29.96 inches Hg (1014.6 mb)
Winds: from the W (260 degrees) at 6 MPH (5 knots; 2.6 m/s)
Visibility: 10 or more miles (16+ km)
Ceiling: at least 12,000 feet AGL
Clouds: sky clear below 12,000 feet AGL
Weather: automated observation with no human augmentation;
there may or may not be significant weather present at this time

METAR text: KMNH 260235Z AUTO 31007KT 10SM CLR 00/M06 A2997 RMK AO2
Conditions at: KMNH (MONUMENT/ELBERT , CO, US) observed 0235 UTC 26 November 2014
Temperature: 0.0°C (32°F)
Dewpoint: -6.0°C (21°F) [RH = 64%]
Pressure (altimeter): 29.97 inches Hg (1015.0 mb)
Winds: from the NW (310 degrees) at 8 MPH (7 knots; 3.6 m/s)
Visibility: 10 or more miles (16+ km)
Ceiling: at least 12,000 feet AGL
Clouds: sky clear below 12,000 feet AGL
Weather: automated observation with no human augmentation;
there may or may not be significant weather present at this time

METAR text: KMNH 260214Z AUTO 31006KT 10SM CLR 00/M06 A2996 RMK AO2
Conditions at: KMNH (MONUMENT/ELBERT , CO, US) observed 0214 UTC 26 November 2014
Temperature: 0.0°C (32°F)
Dewpoint: -6.0°C (21°F) [RH = 64%]
Pressure (altimeter): 29.96 inches Hg (1014.6 mb)
Winds: from the NW (310 degrees) at 7 MPH (6 knots; 3.1 m/s)
Visibility: 10 or more miles (16+ km)
Ceiling: at least 12,000 feet AGL
Clouds: sky clear below 12,000 feet AGL
Weather: automated observation with no human augmentation;
there may or may not be significant weather present at this time

METAR text: KMNH 260154Z AUTO 28005KT 10SM CLR 00/M06 A2995 RMK AO2
Conditions at: KMNH (MONUMENT/ELBERT , CO, US) observed 0154 UTC 26 November 2014
Temperature: 0.0°C (32°F)
Dewpoint: -6.0°C (21°F) [RH = 64%]
Pressure (altimeter): 29.95 inches Hg (1014.3 mb)
Winds: from the W (280 degrees) at 6 MPH (5 knots; 2.6 m/s)
Visibility: 10 or more miles (16+ km)
Ceiling: at least 12,000 feet AGL
Clouds: sky clear below 12,000 feet AGL
Weather: automated observation with no human augmentation;
there may or may not be significant weather present at this time

METAR text: KMNH 260135Z AUTO 27006KT 10SM CLR 00/M06 A2995 RMK AO2
Conditions at: KMNH (MONUMENT/ELBERT , CO, US) observed 0135 UTC 26 November 2014
Temperature: 0.0°C (32°F)
Dewpoint: -6.0°C (21°F) [RH = 64%]
Pressure (altimeter): 29.95 inches Hg (1014.3 mb)
Winds: from the W (270 degrees) at 7 MPH (6 knots; 3.1 m/s)
Visibility: 10 or more miles (16+ km)
Ceiling: at least 12,000 feet AGL
Clouds: sky clear below 12,000 feet AGL
Weather: automated observation with no human augmentation;
there may or may not be significant weather present at this time

METAR text: KMNH 260115Z AUTO 28007KT 10SM CLR 00/M06 A2995 RMK AO2
Conditions at: KMNH (MONUMENT/ELBERT , CO, US) observed 0115 UTC 26 November 2014
Temperature: 0.0°C (32°F)
Dewpoint: -6.0°C (21°F) [RH = 64%]
Pressure (altimeter): 29.95 inches Hg (1014.3 mb)
Winds: from the W (280 degrees) at 8 MPH (7 knots; 3.6 m/s)
Visibility: 10 or more miles (16+ km)
Ceiling: at least 12,000 feet AGL
Clouds: sky clear below 12,000 feet AGL
Weather: automated observation with no human augmentation;
there may or may not be significant weather present at this time

METAR text: KMNH 260055Z AUTO 32012KT 10SM CLR 02/M06 A2995 RMK AO2
Conditions at: KMNH (MONUMENT/ELBERT , CO, US) observed 0055 UTC 26 November 2014
Temperature: 2.0°C (36°F)
Dewpoint: -6.0°C (21°F) [RH = 55%]
Pressure (altimeter): 29.95 inches Hg (1014.3 mb)
Winds: from the NW (320 degrees) at 14 MPH (12 knots; 6.2 m/s)
Visibility: 10 or more miles (16+ km)
Ceiling: at least 12,000 feet AGL
Clouds: sky clear below 12,000 feet AGL
Weather: automated observation with no human augmentation;
there may or may not be significant weather present at this time

METAR text: KMNH 260034Z AUTO 32015G20KT 10SM SCT120 02/M06 A2995 RMK AO2
Conditions at: KMNH (MONUMENT/ELBERT , CO, US) observed 0034 UTC 26 November 2014
Temperature: 2.0°C (36°F)
Dewpoint: -6.0°C (21°F) [RH = 55%]
Pressure (altimeter): 29.95 inches Hg (1014.3 mb)
Winds: from the NW (320 degrees) at 17 MPH (15 knots; 7.8 m/sgusting to 23 MPH (20 knots; 10.4 m/s)
Visibility: 10 or more miles (16+ km)
Ceiling: at least 12,000 feet AGL
Clouds: scattered clouds at 12000 feet AGL
Weather: automated observation with no human augmentation;
there may or may not be significant weather present at this time

METAR text: KMNH 260015Z AUTO 32014KT 10SM SCT120 02/M06 A2995 RMK AO2
Conditions at: KMNH (MONUMENT/ELBERT , CO, US) observed 0015 UTC 26 November 2014
Temperature: 2.0°C (36°F)
Dewpoint: -6.0°C (21°F) [RH = 55%]
Pressure (altimeter): 29.95 inches Hg (1014.3 mb)
Winds: from the NW (320 degrees) at 16 MPH (14 knots; 7.3 m/s)
Visibility: 10 or more miles (16+ km)
Ceiling: at least 12,000 feet AGL
Clouds: scattered clouds at 12000 feet AGL
Weather: automated observation with no human augmentation;
there may or may not be significant weather present at this time

METAR text: KMNH 252354Z AUTO 32011G17KT 10SM SCT120 02/M07 A2994 RMK AO2
Conditions at: KMNH (MONUMENT/ELBERT , CO, US) observed 2354 UTC 25 November 2014
Temperature: 2.0°C (36°F)
Dewpoint: -7.0°C (19°F) [RH = 51%]
Pressure (altimeter): 29.94 inches Hg (1014.0 mb)
Winds: from the NW (320 degrees) at 13 MPH (11 knots; 5.7 m/sgusting to 20 MPH (17 knots; 8.8 m/s)
Visibility: 10 or more miles (16+ km)
Ceiling: at least 12,000 feet AGL
Clouds: scattered clouds at 12000 feet AGL
Weather: automated observation with no human augmentation;
there may or may not be significant weather present at this time

METAR text: KMNH 252334Z AUTO 30010KT 10SM SCT120 01/M07 A2992 RMK AO2
Conditions at: KMNH (MONUMENT/ELBERT , CO, US) observed 2334 UTC 25 November 2014
Temperature: 1.0°C (34°F)
Dewpoint: -7.0°C (19°F) [RH = 55%]
Pressure (altimeter): 29.92 inches Hg (1013.3 mb)
Winds: from the WNW (300 degrees) at 12 MPH (10 knots; 5.2 m/s)
Visibility: 10 or more miles (16+ km)
Ceiling: at least 12,000 feet AGL
Clouds: scattered clouds at 12000 feet AGL
Weather: automated observation with no human augmentation;
there may or may not be significant weather present at this time

METAR text: KMNH 252315Z AUTO 31008KT 10SM CLR 01/M07 A2993 RMK AO2
Conditions at: KMNH (MONUMENT/ELBERT , CO, US) observed 2315 UTC 25 November 2014
Temperature: 1.0°C (34°F)
Dewpoint: -7.0°C (19°F) [RH = 55%]
Pressure (altimeter): 29.93 inches Hg (1013.6 mb)
Winds: from the NW (310 degrees) at 9 MPH (8 knots; 4.2 m/s)
Visibility: 10 or more miles (16+ km)
Ceiling: at least 12,000 feet AGL
Clouds: sky clear below 12,000 feet AGL
Weather: automated observation with no human augmentation;
there may or may not be significant weather present at this time

METAR text: KMNH 252255Z AUTO 31007KT 10SM CLR 02/M07 A2992 RMK AO2
Conditions at: KMNH (MONUMENT/ELBERT , CO, US) observed 2255 UTC 25 November 2014
Temperature: 2.0°C (36°F)
Dewpoint: -7.0°C (19°F) [RH = 51%]
Pressure (altimeter): 29.92 inches Hg (1013.3 mb)
Winds: from the NW (310 degrees) at 8 MPH (7 knots; 3.6 m/s)
Visibility: 10 or more miles (16+ km)
Ceiling: at least 12,000 feet AGL
Clouds: sky clear below 12,000 feet AGL
Weather: automated observation with no human augmentation;
there may or may not be significant weather present at this time

METAR text: KMNH 252235Z AUTO 30010G15KT 10SM CLR 02/M07 A2991 RMK AO2
Conditions at: KMNH (MONUMENT/ELBERT , CO, US) observed 2235 UTC 25 November 2014
Temperature: 2.0°C (36°F)
Dewpoint: -7.0°C (19°F) [RH = 51%]
Pressure (altimeter): 29.91 inches Hg (1013.0 mb)
Winds: from the WNW (300 degrees) at 12 MPH (10 knots; 5.2 m/sgusting to 17 MPH (15 knots; 7.8 m/s)
Visibility: 10 or more miles (16+ km)
Ceiling: at least 12,000 feet AGL
Clouds: sky clear below 12,000 feet AGL
Weather: automated observation with no human augmentation;
there may or may not be significant weather present at this time

METAR text: KMNH 252215Z AUTO 30006KT 10SM CLR 01/M07 A2991 RMK AO2
Conditions at: KMNH (MONUMENT/ELBERT , CO, US) observed 2215 UTC 25 November 2014
Temperature: 1.0°C (34°F)
Dewpoint: -7.0°C (19°F) [RH = 55%]
Pressure (altimeter): 29.91 inches Hg (1013.0 mb)
Winds: from the WNW (300 degrees) at 7 MPH (6 knots; 3.1 m/s)
Visibility: 10 or more miles (16+ km)
Ceiling: at least 12,000 feet AGL
Clouds: sky clear below 12,000 feet AGL
Weather: automated observation with no human augmentation;
there may or may not be significant weather present at this time

METAR text: KMNH 252155Z AUTO 31008KT 10SM CLR 02/M08 A2991 RMK AO2
Conditions at: KMNH (MONUMENT/ELBERT , CO, US) observed 2155 UTC 25 November 2014
Temperature: 2.0°C (36°F)
Dewpoint: -8.0°C (18°F) [RH = 47%]
Pressure (altimeter): 29.91 inches Hg (1013.0 mb)
Winds: from the NW (310 degrees) at 9 MPH (8 knots; 4.2 m/s)
Visibility: 10 or more miles (16+ km)
Ceiling: at least 12,000 feet AGL
Clouds: sky clear below 12,000 feet AGL
Weather: automated observation with no human augmentation;
there may or may not be significant weather present at this time

METAR text: KMNH 252135Z AUTO 30007KT 10SM CLR 02/M07 A2991 RMK AO2
Conditions at: KMNH (MONUMENT/ELBERT , CO, US) observed 2135 UTC 25 November 2014
Temperature: 2.0°C (36°F)
Dewpoint: -7.0°C (19°F) [RH = 51%]
Pressure (altimeter): 29.91 inches Hg (1013.0 mb)
Winds: from the WNW (300 degrees) at 8 MPH (7 knots; 3.6 m/s)
Visibility: 10 or more miles (16+ km)
Ceiling: at least 12,000 feet AGL
Clouds: sky clear below 12,000 feet AGL
Weather: automated observation with no human augmentation;
there may or may not be significant weather present at this time

METAR text: KMNH 252115Z AUTO 32009KT 10SM SCT110 03/M07 A2990 RMK AO2
Conditions at: KMNH (MONUMENT/ELBERT , CO, US) observed 2115 UTC 25 November 2014
Temperature: 3.0°C (37°F)
Dewpoint: -7.0°C (19°F) [RH = 48%]
Pressure (altimeter): 29.90 inches Hg (1012.6 mb)
Winds: from the NW (320 degrees) at 10 MPH (9 knots; 4.7 m/s)
Visibility: 10 or more miles (16+ km)
Ceiling: at least 12,000 feet AGL
Clouds: scattered clouds at 11000 feet AGL
Weather: automated observation with no human augmentation;
there may or may not be significant weather present at this time

METAR text: KMNH 252055Z AUTO 31010KT 10SM CLR 04/M08 A2990 RMK AO2
Conditions at: KMNH (MONUMENT/ELBERT , CO, US) observed 2055 UTC 25 November 2014
Temperature: 4.0°C (39°F)
Dewpoint: -8.0°C (18°F) [RH = 41%]
Pressure (altimeter): 29.90 inches Hg (1012.6 mb)
Winds: from the NW (310 degrees) at 12 MPH (10 knots; 5.2 m/s)
Visibility: 10 or more miles (16+ km)
Ceiling: at least 12,000 feet AGL
Clouds: sky clear below 12,000 feet AGL
Weather: automated observation with no human augmentation;
there may or may not be significant weather present at this time

METAR text: KMNH 252035Z AUTO 31011KT 10SM CLR 05/M09 A2991 RMK AO2
Conditions at: KMNH (MONUMENT/ELBERT , CO, US) observed 2035 UTC 25 November 2014
Temperature: 5.0°C (41°F)
Dewpoint: -9.0°C (16°F) [RH = 35%]
Pressure (altimeter): 29.91 inches Hg (1013.0 mb)
Winds: from the NW (310 degrees) at 13 MPH (11 knots; 5.7 m/s)
Visibility: 10 or more miles (16+ km)
Ceiling: at least 12,000 feet AGL
Clouds: sky clear below 12,000 feet AGL
Weather: automated observation with no human augmentation;
there may or may not be significant weather present at this time

METAR text: KMNH 252015Z AUTO 31007KT 10SM SCT090 04/M10 A2991 RMK AO2
Conditions at: KMNH (MONUMENT/ELBERT , CO, US) observed 2015 UTC 25 November 2014
Temperature: 4.0°C (39°F)
Dewpoint: -10.0°C (14°F) [RH = 35%]
Pressure (altimeter): 29.91 inches Hg (1013.0 mb)
Winds: from the NW (310 degrees) at 8 MPH (7 knots; 3.6 m/s)
Visibility: 10 or more miles (16+ km)
Ceiling: at least 12,000 feet AGL
Clouds: scattered clouds at 9000 feet AGL
Weather: automated observation with no human augmentation;
there may or may not be significant weather present at this time

METAR text: KMNH 251955Z AUTO 31009G14KT 10SM SCT090 SCT110 05/M10 A2992 RMK AO2
Conditions at: KMNH (MONUMENT/ELBERT , CO, US) observed 1955 UTC 25 November 2014
Temperature: 5.0°C (41°F)
Dewpoint: -10.0°C (14°F) [RH = 33%]
Pressure (altimeter): 29.92 inches Hg (1013.3 mb)
Winds: from the NW (310 degrees) at 10 MPH (9 knots; 4.7 m/sgusting to 16 MPH (14 knots; 7.3 m/s)
Visibility: 10 or more miles (16+ km)
Ceiling: at least 12,000 feet AGL
Clouds: scattered clouds at 9000 feet AGL
scattered clouds at 11000 feet AGL
Weather: automated observation with no human augmentation;
there may or may not be significant weather present at this time

METAR text: KMNH 251935Z AUTO 31010KT 10SM SCT120 05/M10 A2992 RMK AO2
Conditions at: KMNH (MONUMENT/ELBERT , CO, US) observed 1935 UTC 25 November 2014
Temperature: 5.0°C (41°F)
Dewpoint: -10.0°C (14°F) [RH = 33%]
Pressure (altimeter): 29.92 inches Hg (1013.3 mb)
Winds: from the NW (310 degrees) at 12 MPH (10 knots; 5.2 m/s)
Visibility: 10 or more miles (16+ km)
Ceiling: at least 12,000 feet AGL
Clouds: scattered clouds at 12000 feet AGL
Weather: automated observation with no human augmentation;
there may or may not be significant weather present at this time

METAR text: KMNH 251915Z AUTO 31011G14KT 10SM SCT120 04/M10 A2992 RMK AO2
Conditions at: KMNH (MONUMENT/ELBERT , CO, US) observed 1915 UTC 25 November 2014
Temperature: 4.0°C (39°F)
Dewpoint: -10.0°C (14°F) [RH = 35%]
Pressure (altimeter): 29.92 inches Hg (1013.3 mb)
Winds: from the NW (310 degrees) at 13 MPH (11 knots; 5.7 m/sgusting to 16 MPH (14 knots; 7.3 m/s)
Visibility: 10 or more miles (16+ km)
Ceiling: at least 12,000 feet AGL
Clouds: scattered clouds at 12000 feet AGL
Weather: automated observation with no human augmentation;
there may or may not be significant weather present at this time

METAR text: KMNH 251855Z AUTO 31012KT 10SM SCT110 04/M10 A2993 RMK AO2
Conditions at: KMNH (MONUMENT/ELBERT , CO, US) observed 1855 UTC 25 November 2014
Temperature: 4.0°C (39°F)
Dewpoint: -10.0°C (14°F) [RH = 35%]
Pressure (altimeter): 29.93 inches Hg (1013.6 mb)
Winds: from the NW (310 degrees) at 14 MPH (12 knots; 6.2 m/s)
Visibility: 10 or more miles (16+ km)
Ceiling: at least 12,000 feet AGL
Clouds: scattered clouds at 11000 feet AGL
Weather: automated observation with no human augmentation;
there may or may not be significant weather present at this time

METAR text: KMNH 251835Z AUTO 29011KT 10SM CLR 02/M11 A2994 RMK AO2
Conditions at: KMNH (MONUMENT/ELBERT , CO, US) observed 1835 UTC 25 November 2014
Temperature: 2.0°C (36°F)
Dewpoint: -11.0°C (12°F) [RH = 37%]
Pressure (altimeter): 29.94 inches Hg (1014.0 mb)
Winds: from the WNW (290 degrees) at 13 MPH (11 knots; 5.7 m/s)
Visibility: 10 or more miles (16+ km)
Ceiling: at least 12,000 feet AGL
Clouds: sky clear below 12,000 feet AGL
Weather: automated observation with no human augmentation;
there may or may not be significant weather present at this time

METAR text: KMNH 251815Z AUTO 28011KT 10SM SCT110 02/M11 A2995 RMK AO2
Conditions at: KMNH (MONUMENT/ELBERT , CO, US) observed 1815 UTC 25 November 2014
Temperature: 2.0°C (36°F)
Dewpoint: -11.0°C (12°F) [RH = 37%]
Pressure (altimeter): 29.95 inches Hg (1014.3 mb)
Winds: from the W (280 degrees) at 13 MPH (11 knots; 5.7 m/s)
Visibility: 10 or more miles (16+ km)
Ceiling: at least 12,000 feet AGL
Clouds: scattered clouds at 11000 feet AGL
Weather: automated observation with no human augmentation;
there may or may not be significant weather present at this time

METAR text: KMNH 251754Z AUTO 29016G19KT 10SM SCT110 02/M11 A2997 RMK AO2
Conditions at: KMNH (MONUMENT/ELBERT , CO, US) observed 1754 UTC 25 November 2014
Temperature: 2.0°C (36°F)
Dewpoint: -11.0°C (12°F) [RH = 37%]
Pressure (altimeter): 29.97 inches Hg (1015.0 mb)
Winds: from the WNW (290 degrees) at 18 MPH (16 knots; 8.3 m/sgusting to 22 MPH (19 knots; 9.9 m/s)
Visibility: 10 or more miles (16+ km)
Ceiling: at least 12,000 feet AGL
Clouds: scattered clouds at 11000 feet AGL
Weather: automated observation with no human augmentation;
there may or may not be significant weather present at this time

METAR text: KMNH 251735Z AUTO 29011KT 10SM SCT110 01/M10 A2997 RMK AO2
Conditions at: KMNH (MONUMENT/ELBERT , CO, US) observed 1735 UTC 25 November 2014
Temperature: 1.0°C (34°F)
Dewpoint: -10.0°C (14°F) [RH = 44%]
Pressure (altimeter): 29.97 inches Hg (1015.0 mb)
Winds: from the WNW (290 degrees) at 13 MPH (11 knots; 5.7 m/s)
Visibility: 10 or more miles (16+ km)
Ceiling: at least 12,000 feet AGL
Clouds: scattered clouds at 11000 feet AGL
Weather: automated observation with no human augmentation;
there may or may not be significant weather present at this time

METAR text: KMNH 251715Z AUTO 28011G16KT 10SM CLR 00/M10 A2997 RMK AO2
Conditions at: KMNH (MONUMENT/ELBERT , CO, US) observed 1715 UTC 25 November 2014
Temperature: 0.0°C (32°F)
Dewpoint: -10.0°C (14°F) [RH = 47%]
Pressure (altimeter): 29.97 inches Hg (1015.0 mb)
Winds: from the W (280 degrees) at 13 MPH (11 knots; 5.7 m/sgusting to 18 MPH (16 knots; 8.3 m/s)
Visibility: 10 or more miles (16+ km)
Ceiling: at least 12,000 feet AGL
Clouds: sky clear below 12,000 feet AGL
Weather: automated observation with no human augmentation;
there may or may not be significant weather present at this time

METAR text: KMNH 251655Z AUTO 27010KT 10SM SCT110 00/M11 A2997 RMK AO2
Conditions at: KMNH (MONUMENT/ELBERT , CO, US) observed 1655 UTC 25 November 2014
Temperature: 0.0°C (32°F)
Dewpoint: -11.0°C (12°F) [RH = 43%]
Pressure (altimeter): 29.97 inches Hg (1015.0 mb)
Winds: from the W (270 degrees) at 12 MPH (10 knots; 5.2 m/s)
Visibility: 10 or more miles (16+ km)
Ceiling: at least 12,000 feet AGL
Clouds: scattered clouds at 11000 feet AGL
Weather: automated observation with no human augmentation;
there may or may not be significant weather present at this time

METAR text: KMNH 251635Z AUTO 27009KT 10SM SCT120 00/M11 A2997 RMK AO2
Conditions at: KMNH (MONUMENT/ELBERT , CO, US) observed 1635 UTC 25 November 2014
Temperature: 0.0°C (32°F)
Dewpoint: -11.0°C (12°F) [RH = 43%]
Pressure (altimeter): 29.97 inches Hg (1015.0 mb)
Winds: from the W (270 degrees) at 10 MPH (9 knots; 4.7 m/s)
Visibility: 10 or more miles (16+ km)
Ceiling: at least 12,000 feet AGL
Clouds: scattered clouds at 12000 feet AGL
Weather: automated observation with no human augmentation;
there may or may not be significant weather present at this time

METAR text: KMNH 251615Z AUTO 24006KT 10SM SCT120 00/M11 A2997 RMK AO2
Conditions at: KMNH (MONUMENT/ELBERT , CO, US) observed 1615 UTC 25 November 2014
Temperature: 0.0°C (32°F)
Dewpoint: -11.0°C (12°F) [RH = 43%]
Pressure (altimeter): 29.97 inches Hg (1015.0 mb)
Winds: from the WSW (240 degrees) at 7 MPH (6 knots; 3.1 m/s)
Visibility: 10 or more miles (16+ km)
Ceiling: at least 12,000 feet AGL
Clouds: scattered clouds at 12000 feet AGL
Weather: automated observation with no human augmentation;
there may or may not be significant weather present at this time

METAR text: KMNH 251555Z AUTO 25009KT 10SM SCT120 M01/M11 A2997 RMK AO2
Conditions at: KMNH (MONUMENT/ELBERT , CO, US) observed 1555 UTC 25 November 2014
Temperature: -1.0°C (30°F)
Dewpoint: -11.0°C (12°F) [RH = 47%]
Pressure (altimeter): 29.97 inches Hg (1015.0 mb)
Winds: from the WSW (250 degrees) at 10 MPH (9 knots; 4.7 m/s)
Visibility: 10 or more miles (16+ km)
Ceiling: at least 12,000 feet AGL
Clouds: scattered clouds at 12000 feet AGL
Weather: automated observation with no human augmentation;
there may or may not be significant weather present at this time

METAR text: KMNH 251535Z AUTO 24010KT 10SM SCT110 M01/M11 A2998 RMK AO2
Conditions at: KMNH (MONUMENT/ELBERT , CO, US) observed 1535 UTC 25 November 2014
Temperature: -1.0°C (30°F)
Dewpoint: -11.0°C (12°F) [RH = 47%]
Pressure (altimeter): 29.98 inches Hg (1015.3 mb)
Winds: from the WSW (240 degrees) at 12 MPH (10 knots; 5.2 m/s)
Visibility: 10 or more miles (16+ km)
Ceiling: at least 12,000 feet AGL
Clouds: scattered clouds at 11000 feet AGL
Weather: automated observation with no human augmentation;
there may or may not be significant weather present at this time

METAR text: KMNH 251514Z AUTO 23009KT 10SM CLR M02/M12 A2999 RMK AO2
Conditions at: KMNH (MONUMENT/ELBERT , CO, US) observed 1514 UTC 25 November 2014
Temperature: -2.0°C (28°F)
Dewpoint: -12.0°C (10°F) [RH = 46%]
Pressure (altimeter): 29.99 inches Hg (1015.7 mb)
Winds: from the SW (230 degrees) at 10 MPH (9 knots; 4.7 m/s)
Visibility: 10 or more miles (16+ km)
Ceiling: at least 12,000 feet AGL
Clouds: sky clear below 12,000 feet AGL
Weather: automated observation with no human augmentation;
there may or may not be significant weather present at this time

METAR text: KMNH 251454Z AUTO 23010KT 10SM CLR M03/M13 A2999 RMK AO2
Conditions at: KMNH (MONUMENT/ELBERT , CO, US) observed 1454 UTC 25 November 2014
Temperature: -3.0°C (27°F)
Dewpoint: -13.0°C (9°F) [RH = 46%]
Pressure (altimeter): 29.99 inches Hg (1015.7 mb)
Winds: from the SW (230 degrees) at 12 MPH (10 knots; 5.2 m/s)
Visibility: 10 or more miles (16+ km)
Ceiling: at least 12,000 feet AGL
Clouds: sky clear below 12,000 feet AGL
Weather: automated observation with no human augmentation;
there may or may not be significant weather present at this time

METAR text: KMNH 251435Z AUTO 23011KT 10SM CLR M03/M13 A3001 RMK AO2
Conditions at: KMNH (MONUMENT/ELBERT , CO, US) observed 1435 UTC 25 November 2014
Temperature: -3.0°C (27°F)
Dewpoint: -13.0°C (9°F) [RH = 46%]
Pressure (altimeter): 30.01 inches Hg (1016.3 mb)
Winds: from the SW (230 degrees) at 13 MPH (11 knots; 5.7 m/s)
Visibility: 10 or more miles (16+ km)
Ceiling: at least 12,000 feet AGL
Clouds: sky clear below 12,000 feet AGL
Weather: automated observation with no human augmentation;
there may or may not be significant weather present at this time

METAR text: KMNH 251415Z AUTO 23009KT 10SM CLR M03/M13 A3002 RMK AO2
Conditions at: KMNH (MONUMENT/ELBERT , CO, US) observed 1415 UTC 25 November 2014
Temperature: -3.0°C (27°F)
Dewpoint: -13.0°C (9°F) [RH = 46%]
Pressure (altimeter): 30.02 inches Hg (1016.7 mb)
Winds: from the SW (230 degrees) at 10 MPH (9 knots; 4.7 m/s)
Visibility: 10 or more miles (16+ km)
Ceiling: at least 12,000 feet AGL
Clouds: sky clear below 12,000 feet AGL
Weather: automated observation with no human augmentation;
there may or may not be significant weather present at this time

METAR text: KMNH 251354Z AUTO 23008KT 10SM CLR M03/M13 A3003 RMK AO2
Conditions at: KMNH (MONUMENT/ELBERT , CO, US) observed 1354 UTC 25 November 2014
Temperature: -3.0°C (27°F)
Dewpoint: -13.0°C (9°F) [RH = 46%]
Pressure (altimeter): 30.03 inches Hg (1017.0 mb)
Winds: from the SW (230 degrees) at 9 MPH (8 knots; 4.2 m/s)
Visibility: 10 or more miles (16+ km)
Ceiling: at least 12,000 feet AGL
Clouds: sky clear below 12,000 feet AGL
Weather: automated observation with no human augmentation;
there may or may not be significant weather present at this time

METAR text: KMNH 251335Z AUTO 23008KT 10SM CLR M04/M13 A3003 RMK AO2
Conditions at: KMNH (MONUMENT/ELBERT , CO, US) observed 1335 UTC 25 November 2014
Temperature: -4.0°C (25°F)
Dewpoint: -13.0°C (9°F) [RH = 50%]
Pressure (altimeter): 30.03 inches Hg (1017.0 mb)
Winds: from the SW (230 degrees) at 9 MPH (8 knots; 4.2 m/s)
Visibility: 10 or more miles (16+ km)
Ceiling: at least 12,000 feet AGL
Clouds: sky clear below 12,000 feet AGL
Weather: automated observation with no human augmentation;
there may or may not be significant weather present at this time